CST,Max TemperatureF,Mean TemperatureF,Min TemperatureF,Max Dew PointF,MeanDew PointF,Min DewpointF,Max Humidity, Mean Humidity, Min Humidity, Max Sea Level PressureIn, Mean Sea Level PressureIn, Min Sea Level PressureIn, Max VisibilityMiles, Mean VisibilityMiles, Min VisibilityMiles, Max Wind SpeedMPH, Mean Wind SpeedMPH, Max Gust SpeedMPH,PrecipitationIn, CloudCover, Events, WindDirDegrees
2012-12-1,70,61,51,57,54,49,94,79,59,30.07,29.96,29.85,10,9,7,28,15,36,0.00,4,,165
2012-12-2,73,64,55,61,57,53,100,81,57,30.06,29.98,29.93,10,9,5,18,9,24,0.00,2,,180
2012-12-3,74,67,59,59,56,52,95,74,48,29.99,29.91,29.81,10,9,2,30,15,38,0.29,3,Rain,184
2012-12-4,60,48,36,59,43,31,100,75,36,30.33,30.15,29.96,10,8,3,18,9,23,0.47,4,Rain-Thunderstorm,8
2012-12-5,60,46,31,37,30,28,89,57,20,30.35,30.24,30.07,10,10,10,16,6,20,0.00,0,,142
2012-12-6,60,50,39,45,40,32,90,72,54,30.05,29.94,29.86,10,10,10,15,9,18,0.00,0,,156
2012-12-7,55,52,48,52,50,46,100,93,77,29.90,29.85,29.81,10,5,1,10,3,12,0.01,8,Rain,201
2012-12-8,51,49,46,48,46,44,100,93,82,29.96,29.89,29.82,10,4,0,14,8,16,T,8,Fog,46
2012-12-9,52,49,45,50,43,17,100,88,54,30.03,29.85,29.78,10,6,0,20,7,23,0.00,7,Fog-Rain,353
2012-12-10,32,25,18,20,17,13,85,70,56,30.11,30.05,29.99,10,10,10,18,9,23,0.00,4,,297
2012-12-11,47,31,16,21,17,12,84,64,26,30.19,30.12,30.06,10,10,10,14,5,18,0.00,0,,198
2012-12-12,50,37,23,21,17,15,72,48,20,30.31,30.25,30.19,10,10,10,20,10,23,0.00,0,,170
2012-12-13,58,45,32,25,21,16,54,41,19,30.25,30.21,30.14,10,10,10,23,15,31,0.00,0,,167
2012-12-14,52,44,35,39,28,24,86,53,27,30.17,30.05,29.79,10,10,10,31,14,37,0.06,4,Rain,155
2012-12-15,62,53,43,46,42,36,97,76,42,29.77,29.70,29.65,10,10,8,31,17,37,0.02,3,Rain,184
2012-12-16,61,49,36,40,37,33,100,75,37,29.74,29.70,29.62,10,7,0,13,7,15,0.00,1,Fog,302
2012-12-17,40,35,30,40,37,30,100,93,85,29.82,29.74,29.69,7,3,0,15,9,19,T,7,Fog-Rain,312
2012-12-18,59,45,31,36,33,29,96,68,40,29.87,29.79,29.74,10,9,5,21,9,28,0.00,0,,200
2012-12-19,59,47,34,56,46,30,93,79,65,29.86,29.64,29.39,10,10,5,28,14,33,0.08,5,Rain-Thunderstorm,139
2012-12-20,57,42,27,52,28,16,92,76,59,30.26,29.78,29.36,10,7,1,36,22,51,T,6,Rain-Snow,281
2012-12-21,45,34,22,18,16,13,77,52,27,30.38,30.32,30.26,10,10,10,17,6,24,0.00,0,,316
2012-12-22,62,45,27,28,19,12,69,42,15,30.26,30.10,29.97,10,10,10,23,14,29,0.00,0,,183
2012-12-23,60,47,34,45,38,31,82,66,49,29.95,29.88,29.81,10,10,9,13,8,16,0.00,2,,235
2012-12-24,36,29,22,30,23,19,92,76,59,30.08,29.99,29.86,7,5,3,18,10,24,0.00,3,,345
2012-12-25,30,25,20,21,18,15,88,76,63,30.15,30.06,30.00,10,9,7,29,17,35,0.00,7,,34
2012-12-26,29,24,18,18,16,13,84,74,63,30.22,30.14,30.04,10,10,10,24,15,30,0.00,5,,335
2012-12-27,37,28,19,26,22,16,84,69,54,30.15,30.05,29.96,10,10,10,22,12,28,0.00,1,,141
2012-12-28,36,32,27,30,27,19,100,85,70,30.04,29.96,29.88,10,7,1,18,8,22,0.01,8,Snow,210
2012-12-29,34,27,19,18,15,13,77,62,47,30.40,30.25,30.02,10,9,7,18,10,25,T,4,,285
2012-12-30,44,31,17,24,17,13,84,59,33,30.45,30.34,30.22,10,10,8,20,10,25,0.00,0,,175
2012-12-31,36,34,32,35,32,19,100,74,47,30.23,30.09,29.99,10,3,0,13,7,17,0.16,8,Fog-Rain-Snow,136